Time;durP1;ratioP1;P1;durP2;ratioP2;P2;SDS_P1;SDS_P2;PMS_P1;PMS_P2;Temp;Humidity;BMP_temperature;BMP_pressure;BME280_temperature;BME280_humidity;BME280_pressure;Samples;Min_cycle;Max_cycle;Signal;HPM_P1;HPM_P2
2022/07/05 00:00:35;;;;;;;0.00;0.00;;;15.20;68.60;;;;;;5078139;22;114754;-59
2022/07/05 00:02:39;;;;;;;0.00;0.00;;;15.20;68.80;;;;;;5077847;22;114853;-60
2022/07/05 00:04:43;;;;;;;0.00;0.00;;;15.10;68.90;;;;;;5078559;22;114781;-60
2022/07/05 00:09:09;;;;;;;0.00;0.00;;;15.20;69.10;;;;;;5078252;22;115204;-61
2022/07/05 00:11:12;;;;;;;0.00;0.00;;;15.10;69.10;;;;;;5077597;22;114934;-61
2022/07/05 00:13:16;;;;;;;0.00;0.00;;;15.10;69.30;;;;;;5080258;22;115200;-61
2022/07/05 00:15:19;;;;;;;0.00;0.00;;;15.10;69.40;;;;;;5079796;22;114934;-60
2022/07/05 00:17:22;;;;;;;0.00;0.00;;;15.10;69.60;;;;;;5076489;22;114634;-61
2022/07/05 00:19:26;;;;;;;0.00;0.00;;;15.10;69.60;;;;;;5076136;22;115434;-60
2022/07/05 00:21:33;;;;;;;0.00;0.00;;;15.10;69.70;;;;;;5076200;22;114808;-60
2022/07/05 00:23:42;;;;;;;0.00;0.00;;;15.00;69.80;;;;;;5075539;22;114201;-61
2022/07/05 00:25:45;;;;;;;0.00;0.00;;;15.00;69.90;;;;;;5077089;22;114849;-60
2022/07/05 00:27:48;;;;;;;0.00;0.00;;;15.00;70.20;;;;;;5076640;22;114722;-60
2022/07/05 00:29:52;;;;;;;0.00;0.00;;;14.90;70.30;;;;;;5075370;22;114150;-60
2022/07/05 00:31:55;;;;;;;0.00;0.00;;;14.90;70.50;;;;;;5074670;22;114697;-61
2022/07/05 00:33:58;;;;;;;0.00;0.00;;;14.90;70.70;;;;;;5076576;22;115067;-61
2022/07/05 00:36:01;;;;;;;0.00;0.00;;;14.90;70.80;;;;;;5076579;22;114702;-60
2022/07/05 00:38:04;;;;;;;0.00;0.00;;;14.90;70.90;;;;;;5076827;22;116663;-61
2022/07/05 00:40:10;;;;;;;0.00;0.00;;;14.80;70.90;;;;;;5076518;22;114877;-61
2022/07/05 00:42:13;;;;;;;0.00;0.00;;;14.90;71.00;;;;;;5049235;23;115793;-60
2022/07/05 00:44:16;;;;;;;0.00;0.00;;;14.90;70.90;;;;;;5077083;22;115119;-60
2022/07/05 00:46:19;;;;;;;0.00;0.00;;;14.80;70.90;;;;;;5076558;22;114757;-61
2022/07/05 00:48:23;;;;;;;0.00;0.00;;;14.80;71.00;;;;;;5049063;23;114208;-61
2022/07/05 00:50:26;;;;;;;0.00;0.00;;;14.80;70.90;;;;;;5050556;23;114826;-60
2022/07/05 00:52:29;;;;;;;0.00;0.00;;;14.80;70.90;;;;;;5075240;22;115387;-60
2022/07/05 00:54:37;;;;;;;0.00;0.00;;;14.80;71.00;;;;;;5076534;22;116416;-60
2022/07/05 00:56:42;;;;;;;0.00;0.00;;;14.80;71.20;;;;;;5048578;23;113795;-60
2022/07/05 00:58:45;;;;;;;0.08;0.00;;;14.70;71.20;;;;;;5074639;22;114786;-60
2022/07/05 01:00:49;;;;;;;0.00;0.00;;;14.70;71.10;;;;;;5076527;22;115103;-61
2022/07/05 01:02:55;;;;;;;0.00;0.00;;;14.70;71.10;;;;;;5075993;22;114741;-61
2022/07/05 01:04:58;;;;;;;0.05;0.00;;;14.70;71.20;;;;;;5075998;22;114191;-64
2022/07/05 01:07:03;;;;;;;0.00;0.00;;;14.70;71.30;;;;;;5076789;22;114425;-63
2022/07/05 01:09:07;;;;;;;0.00;0.00;;;14.60;71.40;;;;;;5075542;22;114839;-61
2022/07/05 01:11:11;;;;;;;0.00;0.00;;;14.60;71.40;;;;;;5076329;22;114806;-61
2022/07/05 01:13:16;;;;;;;0.00;0.00;;;14.60;71.70;;;;;;5076669;22;114657;-61
2022/07/05 01:15:22;;;;;;;0.00;0.00;;;14.60;71.70;;;;;;5076852;22;115013;-60
2022/07/05 01:17:25;;;;;;;0.00;0.00;;;14.60;71.80;;;;;;5075100;22;114838;-61
2022/07/05 01:19:29;;;;;;;0.00;0.00;;;14.50;71.70;;;;;;5075917;22;114980;-60
2022/07/05 01:21:33;;;;;;;0.00;0.00;;;14.50;71.80;;;;;;5076166;22;114595;-61
2022/07/05 01:23:37;;;;;;;0.00;0.00;;;14.50;71.90;;;;;;5076173;22;114724;-61
2022/07/05 01:25:42;;;;;;;0.00;0.00;;;14.50;72.10;;;;;;5076884;22;115300;-60
2022/07/05 01:27:49;;;;;;;0.00;0.00;;;14.40;72.20;;;;;;5075931;22;117329;-60
2022/07/05 01:29:52;;;;;;;0.00;0.00;;;14.40;72.10;;;;;;5076015;22;115127;-60
2022/07/05 01:31:55;;;;;;;0.00;0.00;;;14.40;72.30;;;;;;5049829;23;115190;-64
2022/07/05 01:33:59;;;;;;;0.00;0.00;;;14.40;72.40;;;;;;5049976;23;114654;-61
2022/07/05 01:36:04;;;;;;;0.00;0.00;;;14.40;72.40;;;;;;5075813;22;114764;-60
2022/07/05 01:38:11;;;;;;;0.00;0.00;;;14.40;72.50;;;;;;5077156;22;115001;-61
2022/07/05 01:40:16;;;;;;;0.00;0.00;;;14.40;72.60;;;;;;5075769;22;114843;-60
2022/07/05 01:42:19;;;;;;;0.00;0.00;;;14.40;72.60;;;;;;5050031;23;114905;-60
2022/07/05 01:44:23;;;;;;;0.00;0.00;;;14.40;72.50;;;;;;5075181;22;114008;-60
2022/07/05 01:46:32;;;;;;;0.00;0.00;;;14.40;72.60;;;;;;5076956;22;114711;-61
2022/07/05 01:48:38;;;;;;;0.00;0.00;;;14.30;72.60;;;;;;5074909;22;114180;-61
2022/07/05 01:50:45;;;;;;;0.00;0.00;;;14.30;72.60;;;;;;5076257;22;114827;-61
2022/07/05 01:52:50;;;;;;;0.00;0.00;;;14.30;72.80;;;;;;5076346;22;114686;-61
2022/07/05 01:54:54;;;;;;;0.00;0.00;;;14.40;72.80;;;;;;5049920;23;114933;-61
2022/07/05 01:56:59;;;;;;;0.00;0.00;;;14.30;72.80;;;;;;5050231;23;114721;-61
2022/07/05 01:59:02;;;;;;;0.00;0.00;;;14.30;72.90;;;;;;5075404;22;114460;-61
2022/07/05 02:01:05;;;;;;;0.00;0.00;;;14.30;72.80;;;;;;5075901;22;114528;-61
2022/07/05 02:03:09;;;;;;;0.00;0.00;;;14.30;72.90;;;;;;5076417;22;114945;-61
2022/07/05 02:05:12;;;;;;;0.00;0.00;;;14.40;73.00;;;;;;5076255;22;114887;-61
2022/07/05 02:07:21;;;;;;;0.00;0.00;;;14.30;72.90;;;;;;5049047;23;115234;-61
2022/07/05 02:09:24;;;;;;;0.00;0.00;;;14.30;73.10;;;;;;5076225;22;115882;-61
2022/07/05 02:11:28;;;;;;;0.00;0.00;;;14.30;73.10;;;;;;5073746;22;116278;-62
2022/07/05 02:13:33;;;;;;;0.15;0.00;;;14.30;73.20;;;;;;5075907;22;114698;-61
2022/07/05 02:15:39;;;;;;;0.00;0.00;;;14.20;73.30;;;;;;5050180;23;115010;-61
2022/07/05 02:17:45;;;;;;;0.00;0.00;;;14.20;73.40;;;;;;5048965;23;114819;-61
2022/07/05 02:19:49;;;;;;;0.00;0.00;;;14.20;73.50;;;;;;5075420;22;115701;-61
2022/07/05 02:21:54;;;;;;;0.00;0.00;;;14.20;73.60;;;;;;5049638;23;114844;-59
2022/07/05 02:23:57;;;;;;;0.00;0.00;;;14.10;73.70;;;;;;5049958;23;115063;-61
2022/07/05 02:26:04;;;;;;;0.00;0.00;;;14.10;73.70;;;;;;5050161;23;114656;-60
2022/07/05 02:28:07;;;;;;;0.00;0.00;;;14.10;73.90;;;;;;5049129;23;114831;-61
2022/07/05 02:30:16;;;;;;;0.00;0.00;;;14.10;73.90;;;;;;5049641;23;114277;-61
2022/07/05 02:32:20;;;;;;;0.00;0.00;;;14.10;74.10;;;;;;5047555;23;115806;-60
2022/07/05 02:34:24;;;;;;;0.00;0.00;;;14.10;74.00;;;;;;5050051;23;114986;-61
2022/07/05 02:36:28;;;;;;;0.05;0.00;;;14.10;74.10;;;;;;5049403;23;114442;-61
2022/07/05 02:38:32;;;;;;;0.00;0.00;;;14.10;74.10;;;;;;5048581;23;115927;-60
2022/07/05 02:40:36;;;;;;;0.10;0.00;;;14.10;74.50;;;;;;5075811;22;114631;-60
2022/07/05 02:42:41;;;;;;;0.00;0.00;;;14.10;74.20;;;;;;5073366;22;114218;-60
2022/07/05 02:44:48;;;;;;;0.00;0.00;;;14.10;74.20;;;;;;5048204;23;114851;-61
2022/07/05 02:46:53;;;;;;;0.00;0.00;;;14.10;74.20;;;;;;5049508;23;115290;-61
2022/07/05 02:49:01;;;;;;;0.00;0.00;;;14.10;74.30;;;;;;5048247;23;115918;-61
2022/07/05 02:51:08;;;;;;;0.00;0.00;;;14.00;74.30;;;;;;5076055;22;116900;-61
2022/07/05 02:53:13;;;;;;;0.00;0.00;;;14.00;74.40;;;;;;5050054;23;115627;-59
2022/07/05 02:55:21;;;;;;;0.00;0.00;;;14.00;74.50;;;;;;5050412;23;114783;-60
2022/07/05 02:57:24;;;;;;;0.00;0.00;;;14.00;75.20;;;;;;5073819;22;114524;-60
2022/07/05 02:59:29;;;;;;;0.00;0.00;;;14.00;74.70;;;;;;5049128;23;115047;-61
2022/07/05 03:01:33;;;;;;;0.00;0.00;;;14.00;74.70;;;;;;5049064;23;113764;-60
2022/07/05 03:03:43;;;;;;;0.00;0.00;;;14.00;74.90;;;;;;5049072;23;114892;-61
2022/07/05 03:05:47;;;;;;;0.08;0.00;;;14.00;74.90;;;;;;5049443;23;116737;-61
2022/07/05 03:07:50;;;;;;;0.00;0.00;;;14.00;75.00;;;;;;5074954;22;115178;-61
2022/07/05 03:09:53;;;;;;;0.00;0.00;;;14.00;74.90;;;;;;5049659;23;116957;-61
2022/07/05 03:11:58;;;;;;;0.00;0.00;;;13.90;74.90;;;;;;5048523;23;114467;-61
2022/07/05 03:14:01;;;;;;;0.00;0.00;;;14.00;75.00;;;;;;5049825;23;114963;-61
2022/07/05 03:16:05;;;;;;;0.00;0.00;;;14.00;75.00;;;;;;5049501;23;114679;-60
2022/07/05 03:18:08;;;;;;;0.00;0.00;;;14.00;75.00;;;;;;5076677;22;115386;-61
2022/07/05 03:20:13;;;;;;;0.00;0.00;;;14.00;74.90;;;;;;5050269;23;114978;-61
2022/07/05 03:22:16;;;;;;;0.00;0.00;;;14.00;75.00;;;;;;5050464;23;114927;-60
2022/07/05 03:24:19;;;;;;;0.00;0.00;;;14.10;75.10;;;;;;5049991;23;114929;-60
2022/07/05 03:26:22;;;;;;;0.00;0.00;;;14.00;75.00;;;;;;5049311;23;114041;-60
2022/07/05 03:28:25;;;;;;;0.00;0.00;;;14.00;75.10;;;;;;5049830;23;114030;-60
2022/07/05 03:30:32;;;;;;;0.00;0.00;;;14.00;75.20;;;;;;5049899;23;115802;-61
2022/07/05 03:32:35;;;;;;;0.00;0.00;;;14.00;75.30;;;;;;5048896;23;114818;-61
2022/07/05 03:34:40;;;;;;;0.00;0.00;;;14.00;75.40;;;;;;5050483;23;114824;-61
2022/07/05 03:36:47;;;;;;;0.00;0.00;;;14.00;75.50;;;;;;5049264;23;115052;-60
2022/07/05 03:38:53;;;;;;;0.00;0.00;;;14.00;75.60;;;;;;5050160;23;114958;-61
2022/07/05 03:40:56;;;;;;;0.00;0.00;;;14.00;75.60;;;;;;5049973;23;115096;-60
2022/07/05 03:43:01;;;;;;;0.00;0.00;;;14.00;75.70;;;;;;5048945;23;116062;-61
2022/07/05 03:45:10;;;;;;;0.00;0.00;;;14.00;75.80;;;;;;5024890;23;115500;-61
2022/07/05 03:47:14;;;;;;;0.00;0.00;;;14.00;75.80;;;;;;5049881;23;114791;-61
2022/07/05 03:49:20;;;;;;;0.10;0.00;;;14.00;76.00;;;;;;5075870;22;115360;-61
2022/07/05 03:51:24;;;;;;;0.00;0.00;;;14.00;76.10;;;;;;5076051;22;115555;-60
2022/07/05 03:53:31;;;;;;;0.00;0.00;;;14.00;76.10;;;;;;5049970;23;114901;-61
2022/07/05 03:55:35;;;;;;;0.00;0.00;;;14.00;76.10;;;;;;5049006;23;116400;-60
2022/07/05 03:57:38;;;;;;;0.85;0.00;;;14.10;76.10;;;;;;5075331;22;114037;-61
2022/07/05 03:59:42;;;;;;;0.00;0.00;;;14.00;76.00;;;;;;5049659;23;115260;-61
2022/07/05 04:01:46;;;;;;;0.00;0.00;;;14.10;76.20;;;;;;5048609;23;116974;-61
2022/07/05 04:03:50;;;;;;;0.00;0.00;;;14.10;76.20;;;;;;5075546;22;115222;-60
2022/07/05 04:05:53;;;;;;;0.00;0.00;;;14.10;76.20;;;;;;5075675;22;114800;-61
2022/07/05 04:07:57;;;;;;;0.10;0.00;;;14.10;76.20;;;;;;5075798;22;114717;-61
2022/07/05 04:10:08;;;;;;;0.00;0.00;;;14.10;76.20;;;;;;5072738;22;115984;-61
2022/07/05 04:12:11;;;;;;;0.03;0.00;;;14.20;76.20;;;;;;5048808;23;114760;-61
2022/07/05 04:14:16;;;;;;;0.00;0.00;;;14.10;76.20;;;;;;5048290;23;114735;-61
2022/07/05 04:16:20;;;;;;;0.00;0.00;;;14.20;76.10;;;;;;5075304;22;114892;-61
2022/07/05 04:18:23;;;;;;;0.00;0.00;;;14.20;76.20;;;;;;5049007;23;115266;-61
2022/07/05 04:20:28;;;;;;;0.00;0.00;;;14.20;76.10;;;;;;5049322;23;115622;-61
2022/07/05 04:22:32;;;;;;;0.00;0.00;;;14.20;76.10;;;;;;5048092;23;114884;-61
2022/07/05 04:25:16;;;;;;;0.00;0.00;;;14.30;76.10;;;;;;5073136;22;117076;-60
2022/07/05 04:27:00;;;;;;;0.10;0.00;;;14.30;76.10;;;;;;5048465;23;117189;-61
2022/07/05 04:29:03;;;;;;;0.00;0.00;;;14.30;76.70;;;;;;5049101;23;115300;-61
2022/07/05 04:31:10;;;;;;;0.00;0.00;;;14.40;76.10;;;;;;5049090;23;116522;-58
2022/07/05 04:33:18;;;;;;;0.00;0.00;;;14.40;76.00;;;;;;5048959;23;116535;-59
2022/07/05 04:35:23;;;;;;;0.00;0.00;;;14.50;76.10;;;;;;5049584;23;114706;-58
2022/07/05 04:37:28;;;;;;;0.00;0.00;;;14.50;76.10;;;;;;5049023;23;115281;-61
2022/07/05 04:39:31;;;;;;;0.00;0.00;;;14.50;76.00;;;;;;5048869;23;116641;-61
2022/07/05 04:41:40;;;;;;;0.00;0.00;;;14.60;76.00;;;;;;5049580;23;114868;-60
2022/07/05 04:43:46;;;;;;;0.00;0.00;;;14.60;76.00;;;;;;5048234;23;117602;-61
2022/07/05 04:45:50;;;;;;;0.00;0.00;;;14.60;75.90;;;;;;5049090;23;114690;-60
2022/07/05 04:47:59;;;;;;;0.00;0.00;;;14.60;75.80;;;;;;5049348;23;115497;-59
2022/07/05 04:50:05;;;;;;;0.00;0.00;;;14.70;75.90;;;;;;5073634;22;116193;-61
2022/07/05 04:52:09;;;;;;;0.10;0.00;;;14.70;75.80;;;;;;5075076;22;114997;-60
2022/07/05 04:54:12;;;;;;;0.00;0.00;;;14.80;75.80;;;;;;5075839;22;114806;-61
2022/07/05 04:56:15;;;;;;;0.00;0.00;;;14.80;75.80;;;;;;5075585;22;114976;-60
2022/07/05 04:58:20;;;;;;;0.00;0.00;;;14.80;75.80;;;;;;5076628;22;114939;-61
2022/07/05 05:00:25;;;;;;;0.15;0.00;;;14.80;75.80;;;;;;5050296;23;115206;-61
2022/07/05 05:02:28;;;;;;;0.00;0.00;;;14.90;76.00;;;;;;5075138;22;114909;-61
2022/07/05 05:04:31;;;;;;;0.00;0.00;;;14.90;75.90;;;;;;5076204;22;115125;-60
2022/07/05 05:06:34;;;;;;;0.00;0.00;;;15.00;75.80;;;;;;5076935;22;114871;-61
2022/07/05 05:08:37;;;;;;;0.00;0.00;;;15.10;75.90;;;;;;5076480;22;114157;-61
2022/07/05 05:10:40;;;;;;;0.00;0.00;;;15.20;75.80;;;;;;5076941;22;115666;-61
2022/07/05 05:12:44;;;;;;;0.00;0.00;;;15.20;75.80;;;;;;5076371;22;115213;-61
2022/07/05 05:14:47;;;;;;;0.00;0.00;;;15.20;75.80;;;;;;5075177;22;113799;-61
2022/07/05 05:16:52;;;;;;;0.00;0.00;;;15.30;75.70;;;;;;5075593;22;114870;-61
2022/07/05 05:18:55;;;;;;;0.00;0.00;;;15.40;75.80;;;;;;5077119;22;114498;-61
2022/07/05 05:20:59;;;;;;;0.08;0.00;;;15.50;75.70;;;;;;5075472;22;113739;-61
2022/07/05 05:23:02;;;;;;;0.00;0.00;;;15.60;75.70;;;;;;5075727;22;115000;-59
2022/07/05 05:25:06;;;;;;;0.00;0.00;;;15.70;75.60;;;;;;5076875;22;115237;-61
2022/07/05 05:27:09;;;;;;;0.00;0.00;;;15.80;75.40;;;;;;5077354;22;115013;-61
2022/07/05 05:29:12;;;;;;;0.00;0.00;;;15.80;75.80;;;;;;5075780;22;113909;-61
2022/07/05 05:31:17;;;;;;;0.00;0.00;;;15.90;75.20;;;;;;5076647;22;114746;-61
2022/07/05 05:33:22;;;;;;;0.00;0.00;;;16.00;75.00;;;;;;5076123;22;115147;-61
2022/07/05 05:35:30;;;;;;;0.00;0.00;;;16.10;75.00;;;;;;5050009;23;115514;-61
2022/07/05 05:37:47;;;;;;;0.00;0.00;;;16.20;75.00;;;;;;5075838;22;114134;-61
2022/07/05 05:39:50;;;;;;;0.00;0.00;;;16.30;75.30;;;;;;5076824;22;114752;-61
2022/07/05 05:41:55;;;;;;;0.00;0.00;;;16.40;75.50;;;;;;5076002;22;115907;-61
2022/07/05 05:43:59;;;;;;;0.00;0.00;;;16.60;76.20;;;;;;5076680;22;114694;-61
2022/07/05 05:46:04;;;;;;;0.00;0.00;;;16.80;75.70;;;;;;5076665;22;114959;-61
2022/07/05 05:48:07;;;;;;;0.00;0.00;;;17.00;75.50;;;;;;5077775;22;114911;-61
2022/07/05 05:50:12;;;;;;;0.00;0.00;;;17.10;75.30;;;;;;5050630;23;114874;-61
2022/07/05 05:52:15;;;;;;;0.00;0.00;;;17.20;74.80;;;;;;5076036;22;113909;-61
2022/07/05 05:54:18;;;;;;;0.00;0.00;;;17.40;75.20;;;;;;5075640;22;114180;-61
2022/07/05 05:56:21;;;;;;;0.00;0.00;;;17.60;75.30;;;;;;5076462;22;114466;-61
2022/07/05 05:58:25;;;;;;;0.00;0.00;;;17.90;75.00;;;;;;5077115;22;114905;-61
2022/07/05 06:00:28;;;;;;;0.00;0.00;;;18.20;74.60;;;;;;5076769;22;114789;-59
2022/07/05 06:02:31;;;;;;;0.00;0.00;;;18.70;73.80;;;;;;5075978;22;115251;-60
2022/07/05 06:04:35;;;;;;;0.00;0.00;;;19.20;72.60;;;;;;5077420;22;114823;-59
2022/07/05 06:06:39;;;;;;;0.00;0.00;;;19.60;70.80;;;;;;5077305;22;114931;-59
2022/07/05 06:08:43;;;;;;;0.00;0.00;;;20.00;68.70;;;;;;5077390;22;114790;-59
2022/07/05 06:10:46;;;;;;;0.00;0.00;;;20.40;68.70;;;;;;5076516;22;113935;-59
2022/07/05 06:13:00;;;;;;;0.00;0.00;;;20.80;67.70;;;;;;5076503;22;115016;-59
2022/07/05 06:15:06;;;;;;;0.00;0.00;;;21.10;66.00;;;;;;5076584;22;115074;-59
2022/07/05 06:17:09;;;;;;;0.00;0.00;;;21.40;65.00;;;;;;5076278;22;114798;-60
2022/07/05 06:19:12;;;;;;;0.00;0.00;;;21.70;63.80;;;;;;5077365;22;115337;-60
2022/07/05 06:21:16;;;;;;;0.00;0.00;;;22.10;62.30;;;;;;5075187;22;115530;-61
2022/07/05 06:23:20;;;;;;;0.00;0.00;;;22.50;60.80;;;;;;5076150;22;114814;-61
2022/07/05 06:25:23;;;;;;;0.00;0.00;;;22.60;59.30;;;;;;5074629;22;114418;-61
2022/07/05 06:27:27;;;;;;;0.00;0.00;;;22.70;58.70;;;;;;5076987;22;115269;-61
2022/07/05 06:29:34;;;;;;;0.00;0.00;;;22.90;57.90;;;;;;5077450;22;115085;-60
2022/07/05 06:31:37;;;;;;;0.00;0.00;;;23.20;56.60;;;;;;5076575;22;114676;-60
2022/07/05 06:33:40;;;;;;;0.00;0.00;;;23.50;55.60;;;;;;5076288;22;114962;-60
2022/07/05 06:35:44;;;;;;;0.00;0.00;;;23.60;55.20;;;;;;5076976;22;114963;-60
2022/07/05 06:37:48;;;;;;;0.00;0.00;;;23.50;54.40;;;;;;5077169;22;115188;-61
2022/07/05 06:39:53;;;;;;;0.00;0.00;;;23.30;53.90;;;;;;5076437;22;114625;-61
2022/07/05 06:41:56;;;;;;;0.00;0.00;;;23.00;53.90;;;;;;5075806;22;113940;-62
2022/07/05 06:43:59;;;;;;;0.00;0.00;;;22.60;54.50;;;;;;5076141;22;114824;-61
2022/07/05 06:46:22;;;;;;;0.00;0.00;;;22.20;55.00;;;;;;5076927;22;114807;-61
2022/07/05 06:48:25;;;;;;;0.00;0.00;;;21.80;55.90;;;;;;5077291;22;114761;-60
2022/07/05 06:50:30;;;;;;;0.00;0.00;;;21.70;56.40;;;;;;5075580;22;113988;-60
2022/07/05 06:52:33;;;;;;;0.00;0.00;;;21.60;57.00;;;;;;5076113;22;113951;-60
2022/07/05 06:54:37;;;;;;;0.00;0.00;;;21.60;56.70;;;;;;5077381;22;115212;-61
2022/07/05 06:56:57;;;;;;;0.00;0.00;;;21.60;56.20;;;;;;5077324;22;114807;-61
2022/07/05 06:59:20;;;;;;;0.00;0.00;;;21.40;56.20;;;;;;5077056;22;114670;-60
2022/07/05 07:01:43;;;;;;;0.00;0.00;;;21.10;56.70;;;;;;5076249;22;114870;-60
2022/07/05 07:03:47;;;;;;;0.00;0.00;;;20.90;57.30;;;;;;5075571;22;116450;-60
2022/07/05 07:06:10;;;;;;;0.00;0.00;;;20.80;57.90;;;;;;5076382;22;114648;-61
2022/07/05 07:10:35;;;;;;;0.00;0.00;;;20.70;58.70;;;;;;5076919;22;115162;-59
2022/07/05 07:12:39;;;;;;;0.00;0.00;;;20.60;59.00;;;;;;5076207;22;115391;-60
2022/07/05 07:14:42;;;;;;;0.00;0.00;;;20.50;59.20;;;;;;5076246;22;114263;-61
2022/07/05 07:16:46;;;;;;;0.00;0.00;;;20.60;59.60;;;;;;5076610;22;115653;-61
2022/07/05 07:18:49;;;;;;;0.00;0.00;;;21.10;59.50;;;;;;5029343;23;115519;-61
2022/07/05 07:21:12;;;;;;;0.00;0.00;;;21.70;58.70;;;;;;5030110;23;115144;-61
2022/07/05 07:23:16;;;;;;;0.00;0.00;;;22.80;57.60;;;;;;5029368;23;114911;-61
2022/07/05 07:25:20;;;;;;;0.00;0.00;;;23.60;56.00;;;;;;5027953;23;113944;-61
2022/07/05 07:27:24;;;;;;;0.00;0.00;;;23.90;53.30;;;;;;5029786;23;114797;-61
2022/07/05 07:29:28;;;;;;;0.00;0.00;;;23.90;51.80;;;;;;5028849;23;114406;-61
2022/07/05 07:31:31;;;;;;;0.00;0.00;;;23.70;51.60;;;;;;5029152;23;114923;-61
2022/07/05 07:33:35;;;;;;;0.00;0.00;;;23.60;51.60;;;;;;5028349;23;114705;-60
2022/07/05 07:35:47;;;;;;;0.00;0.00;;;23.30;51.20;;;;;;5029340;23;115066;-61
2022/07/05 07:37:50;;;;;;;0.00;0.00;;;23.00;51.10;;;;;;5030152;23;114743;-61
2022/07/05 07:39:53;;;;;;;0.00;0.00;;;22.70;50.80;;;;;;5027680;23;117484;-61
2022/07/05 07:41:56;;;;;;;0.00;0.00;;;22.40;51.00;;;;;;5026132;23;114717;-60
2022/07/05 07:44:01;;;;;;;0.00;0.00;;;22.10;51.40;;;;;;5022530;23;116195;-61
2022/07/05 07:46:06;;;;;;;0.00;0.00;;;21.80;51.80;;;;;;5028850;23;115658;-61
2022/07/05 07:48:09;;;;;;;0.00;0.00;;;21.50;51.90;;;;;;5002817;23;114612;-61
2022/07/05 07:50:12;;;;;;;0.00;0.00;;;21.30;52.60;;;;;;5029197;23;114175;-61
2022/07/05 07:52:17;;;;;;;0.00;0.00;;;21.10;53.10;;;;;;5028940;23;114990;-61
2022/07/05 07:54:20;;;;;;;0.00;0.00;;;20.90;53.80;;;;;;5028804;23;115310;-61
2022/07/05 07:56:23;;;;;;;0.00;0.00;;;20.80;54.40;;;;;;5029776;23;115617;-60
2022/07/05 07:58:26;;;;;;;0.00;0.00;;;20.70;54.80;;;;;;5029857;23;115599;-60
2022/07/05 08:00:29;;;;;;;0.00;0.00;;;20.60;55.20;;;;;;5002833;23;114895;-60
2022/07/05 08:02:34;;;;;;;0.00;0.00;;;20.60;55.60;;;;;;5029134;23;115354;-60
2022/07/05 08:04:37;;;;;;;0.00;0.00;;;20.60;55.20;;;;;;5029805;23;114957;-60
2022/07/05 08:06:40;;;;;;;0.00;0.00;;;20.50;55.20;;;;;;5030129;23;114877;-59
2022/07/05 08:08:45;;;;;;;0.00;0.00;;;20.70;55.10;;;;;;5028859;23;114090;-60
2022/07/05 08:10:48;;;;;;;0.00;0.00;;;20.80;54.70;;;;;;5028949;23;113770;-55
2022/07/05 08:12:51;;;;;;;0.00;0.00;;;21.00;54.60;;;;;;5028938;23;115277;-60
2022/07/05 08:14:54;;;;;;;0.00;0.00;;;21.20;54.60;;;;;;5029583;23;114642;-61
2022/07/05 08:16:58;;;;;;;0.00;0.00;;;21.40;54.20;;;;;;5032762;22;116044;-61
2022/07/05 08:21:31;;;;;;;0.00;0.00;;;21.70;53.50;;;;;;5078535;22;115426;-62
2022/07/05 08:23:35;;;;;;;0.00;0.00;;;21.80;53.60;;;;;;5077988;22;114864;-61
2022/07/05 08:25:38;;;;;;;0.00;0.00;;;22.30;53.20;;;;;;5078154;22;114813;-61
2022/07/05 08:27:41;;;;;;;0.00;0.00;;;23.00;52.70;;;;;;5078202;22;114639;-59
2022/07/05 08:29:44;;;;;;;0.00;0.00;;;23.50;50.90;;;;;;5078886;22;114900;-62
2022/07/05 08:31:50;;;;;;;0.03;0.00;;;23.70;49.00;;;;;;5079364;22;113931;-61
2022/07/05 08:33:53;;;;;;;0.00;0.00;;;23.70;48.20;;;;;;5079486;22;115995;-61
2022/07/05 08:35:57;;;;;;;0.00;0.00;;;23.60;48.00;;;;;;5079446;22;114782;-62
2022/07/05 08:38:00;;;;;;;0.00;0.00;;;23.50;47.70;;;;;;5080365;22;114905;-61
2022/07/05 08:40:07;;;;;;;0.03;0.00;;;23.30;47.80;;;;;;5079830;22;115172;-61
2022/07/05 08:42:11;;;;;;;0.00;0.00;;;23.10;47.70;;;;;;5079834;22;115053;-61
2022/07/05 08:44:18;;;;;;;0.00;0.00;;;22.90;48.40;;;;;;5080012;22;115469;-61
2022/07/05 08:46:21;;;;;;;0.00;0.00;;;22.70;48.70;;;;;;5079118;22;115907;-60
2022/07/05 08:48:26;;;;;;;0.00;0.00;;;22.60;49.10;;;;;;5080025;22;114936;-61
2022/07/05 08:50:32;;;;;;;0.00;0.00;;;22.40;49.70;;;;;;5080456;22;115387;-60
2022/07/05 08:52:37;;;;;;;0.00;0.00;;;22.20;50.10;;;;;;5078716;22;113902;-61
2022/07/05 08:54:41;;;;;;;0.00;0.00;;;22.00;50.20;;;;;;5078338;22;113883;-60
2022/07/05 08:56:45;;;;;;;0.00;0.00;;;22.00;50.20;;;;;;5080250;22;115697;-61
2022/07/05 08:59:08;;;;;;;0.00;0.00;;;21.90;49.90;;;;;;5080299;22;115234;-61
2022/07/05 09:01:13;;;;;;;0.00;0.00;;;22.00;50.10;;;;;;5079607;22;114925;-61
2022/07/05 09:03:20;;;;;;;0.00;0.00;;;22.40;50.30;;;;;;5078011;22;114114;-61
2022/07/05 09:05:26;;;;;;;0.00;0.00;;;22.90;49.90;;;;;;5079526;22;115369;-61
2022/07/05 09:07:39;;;;;;;0.00;0.00;;;23.40;49.20;;;;;;5080146;22;114803;-61
2022/07/05 09:09:43;;;;;;;0.00;0.00;;;23.90;48.00;;;;;;5053721;23;114941;-61
2022/07/05 09:11:51;;;;;;;0.00;0.00;;;24.10;47.30;;;;;;5079756;22;116319;-61
2022/07/05 09:14:23;;;;;;;0.00;0.00;;;24.10;45.70;;;;;;5079487;22;114990;-61
2022/07/05 09:16:31;;;;;;;0.00;0.00;;;23.90;45.60;;;;;;5079011;22;114214;-61
2022/07/05 09:18:45;;;;;;;0.00;0.00;;;23.60;46.30;;;;;;5080559;22;114870;-61
2022/07/05 09:20:48;;;;;;;0.00;0.00;;;23.30;45.60;;;;;;5080193;22;114775;-61
2022/07/05 09:22:56;;;;;;;0.00;0.00;;;23.10;46.00;;;;;;5080092;22;115417;-61
2022/07/05 09:25:13;;;;;;;0.00;0.00;;;23.10;46.00;;;;;;5079534;22;114770;-61
2022/07/05 09:27:16;;;;;;;0.00;0.00;;;23.50;45.90;;;;;;5079781;22;114944;-61
2022/07/05 09:29:21;;;;;;;0.00;0.00;;;24.20;45.70;;;;;;5080091;22;115125;-61
2022/07/05 09:31:45;;;;;;;0.00;0.00;;;25.00;45.10;;;;;;5079477;22;115108;-61
2022/07/05 09:33:50;;;;;;;0.00;0.00;;;25.50;43.90;;;;;;5079643;22;114493;-61
2022/07/05 09:35:57;;;;;;;0.00;0.00;;;25.50;42.80;;;;;;5079622;22;115779;-61
2022/07/05 09:38:05;;;;;;;0.00;0.00;;;25.60;42.50;;;;;;5080295;22;114944;-61
2022/07/05 09:40:09;;;;;;;0.00;0.00;;;25.90;41.40;;;;;;5079996;22;114921;-61
2022/07/05 09:42:23;;;;;;;0.00;0.00;;;26.10;41.10;;;;;;5079201;22;114851;-61
2022/07/05 09:44:27;;;;;;;0.00;0.00;;;26.30;40.90;;;;;;5078633;22;113829;-61
2022/07/05 09:46:31;;;;;;;0.00;0.00;;;26.50;40.50;;;;;;5079328;22;114134;-61
2022/07/05 09:48:35;;;;;;;0.00;0.00;;;26.30;39.60;;;;;;5079664;22;114832;-61
2022/07/05 09:50:45;;;;;;;0.00;0.00;;;26.10;39.70;;;;;;5080069;22;115833;-61
2022/07/05 09:53:06;;;;;;;0.00;0.00;;;25.70;39.60;;;;;;5079876;22;114953;-61
2022/07/05 09:55:11;;;;;;;0.00;0.00;;;25.30;39.90;;;;;;5080290;22;115173;-61
2022/07/05 09:57:25;;;;;;;0.00;0.00;;;25.00;39.80;;;;;;5078889;22;114687;-61
2022/07/05 09:59:29;;;;;;;0.00;0.00;;;24.70;40.20;;;;;;5079503;22;114870;-61
2022/07/05 10:01:33;;;;;;;0.00;0.00;;;24.50;41.10;;;;;;5080209;22;114766;-61
2022/07/05 10:03:52;;;;;;;0.00;0.00;;;24.80;41.50;;;;;;5078343;22;114151;-61
2022/07/05 10:06:11;;;;;;;0.00;0.00;;;25.40;40.30;;;;;;5079899;22;115136;-61
2022/07/05 10:08:17;;;;;;;0.00;0.00;;;26.00;38.60;;;;;;5079340;22;114258;-61
2022/07/05 10:10:22;;;;;;;0.00;0.00;;;26.80;39.70;;;;;;5080290;22;115130;-62
2022/07/05 10:12:25;;;;;;;0.00;0.00;;;27.50;39.20;;;;;;5079350;22;115195;-61
2022/07/05 10:14:28;;;;;;;0.00;0.00;;;28.30;38.20;;;;;;5079321;22;115536;-61
2022/07/05 10:16:32;;;;;;;0.00;0.00;;;29.10;37.50;;;;;;5078053;22;114543;-61
2022/07/05 10:18:36;;;;;;;0.00;0.00;;;29.20;36.20;;;;;;5080356;22;114963;-62
2022/07/05 10:20:41;;;;;;;0.00;0.00;;;29.10;35.70;;;;;;5078913;22;114531;-61
2022/07/05 10:22:44;;;;;;;0.00;0.00;;;29.10;35.50;;;;;;5079784;22;115299;-61
2022/07/05 10:24:49;;;;;;;0.00;0.00;;;28.80;35.60;;;;;;5079306;22;114080;-61
2022/07/05 10:26:57;;;;;;;0.00;0.00;;;28.70;35.40;;;;;;5078334;22;113898;-61
2022/07/05 10:29:02;;;;;;;0.00;0.00;;;28.50;35.30;;;;;;5077974;22;114759;-61
2022/07/05 10:31:08;;;;;;;0.00;0.00;;;28.20;35.20;;;;;;5078054;22;114052;-61
2022/07/05 10:33:14;;;;;;;0.00;0.00;;;27.80;35.50;;;;;;5079362;22;114127;-61
2022/07/05 10:35:18;;;;;;;0.00;0.00;;;27.40;36.20;;;;;;5079375;22;115336;-61
2022/07/05 10:37:28;;;;;;;0.07;0.00;;;27.20;36.80;;;;;;5051676;23;114138;-61
2022/07/05 10:39:33;;;;;;;0.00;0.00;;;27.30;37.00;;;;;;5079665;22;114793;-61
2022/07/05 10:41:40;;;;;;;0.00;0.00;;;27.40;36.60;;;;;;5080317;22;113638;-61
2022/07/05 10:43:43;;;;;;;0.00;0.00;;;27.50;36.40;;;;;;5079218;22;114606;-61
2022/07/05 10:45:49;;;;;;;0.00;0.00;;;27.70;36.00;;;;;;5078747;22;115327;-60
2022/07/05 10:48:17;;;;;;;0.00;0.00;;;28.00;34.80;;;;;;5078710;22;113957;-61
2022/07/05 10:50:23;;;;;;;0.00;0.00;;;28.30;33.70;;;;;;5078761;22;114702;-61